createdAt,value
2016-12-01T00:00:27.356Z,646.59
2016-12-01T00:01:27.530Z,646.08
2016-12-01T00:02:27.340Z,646.36
2016-12-01T00:03:27.425Z,648.57
2016-12-01T00:04:27.845Z,646.68
2016-12-01T00:05:27.767Z,649.22
2016-12-01T00:06:27.468Z,646.25
2016-12-01T00:07:27.466Z,646.19
2016-12-01T00:08:27.453Z,644.33
2016-12-01T00:09:27.506Z,645.56
2016-12-01T00:10:27.489Z,644.02
2016-12-01T00:11:27.531Z,643.78
2016-12-01T00:12:27.414Z,645.99
2016-12-01T00:13:27.406Z,644.18
2016-12-01T00:14:27.418Z,645.97
2016-12-01T00:15:27.593Z,646.09
2016-12-01T00:16:27.427Z,646.73
2016-12-01T00:17:27.407Z,643.38
2016-12-01T00:18:27.452Z,644.56
2016-12-01T00:19:27.479Z,642.95
2016-12-01T00:20:27.479Z,641.96
2016-12-01T00:21:27.461Z,643.47
2016-12-01T00:22:27.605Z,642.21
2016-12-01T00:23:27.418Z,640.14
2016-12-01T00:24:27.483Z,639.5
2016-12-01T00:25:27.459Z,640.74
2016-12-01T00:26:27.395Z,643.91
2016-12-01T00:27:27.452Z,642.42
2016-12-01T00:28:27.440Z,644.6
2016-12-01T00:29:27.579Z,647.92
2016-12-01T00:30:27.349Z,648.1
2016-12-01T00:31:27.486Z,647
2016-12-01T00:32:27.390Z,646.08
2016-12-01T00:33:27.437Z,647.72
2016-12-01T00:34:27.440Z,646.64
2016-12-01T00:35:27.465Z,645.87
2016-12-01T00:36:27.404Z,645.72
2016-12-01T00:37:27.538Z,648.27
2016-12-01T00:38:27.394Z,645.89
2016-12-01T00:39:27.371Z,648.98
2016-12-01T00:40:27.395Z,646.43
2016-12-01T00:41:27.508Z,646.2
2016-12-01T00:42:27.401Z,644.77
2016-12-01T00:43:27.550Z,643.8
2016-12-01T00:44:27.479Z,643.83
2016-12-01T00:45:27.420Z,647.29
2016-12-01T00:46:27.417Z,647.47
2016-12-01T00:47:27.490Z,647.49
2016-12-01T00:48:27.421Z,647.39
2016-12-01T00:49:27.541Z,649.06
2016-12-01T00:50:27.453Z,649.43
2016-12-01T00:51:27.490Z,649.03
2016-12-01T00:52:27.409Z,649
2016-12-01T00:53:27.492Z,650.15
2016-12-01T00:54:27.433Z,650.33
2016-12-01T00:55:27.470Z,649.57
2016-12-01T00:56:27.431Z,649.4
2016-12-01T00:57:27.394Z,649.88
2016-12-01T00:58:27.375Z,653.33
2016-12-01T00:59:27.512Z,651.68
2016-12-01T01:00:27.460Z,650.09
2016-12-01T01:01:27.439Z,649.32
2016-12-01T01:02:27.450Z,648.81
2016-12-01T01:03:27.448Z,650.08
2016-12-01T01:04:27.419Z,648.73
2016-12-01T01:05:27.432Z,649.85
2016-12-01T01:06:27.455Z,652.17
2016-12-01T01:07:27.552Z,652.25
2016-12-01T01:08:27.487Z,649.63
2016-12-01T01:09:27.431Z,651.56
2016-12-01T01:10:27.379Z,650.38
2016-12-01T01:11:27.443Z,650.55
2016-12-01T01:12:27.474Z,650.58
2016-12-01T01:13:27.479Z,652.42
2016-12-01T01:14:27.501Z,654.51
2016-12-01T01:15:27.500Z,654.42
2016-12-01T01:16:27.488Z,652.96
2016-12-01T01:17:27.476Z,653.47
2016-12-01T01:18:27.426Z,653.49
2016-12-01T01:19:27.454Z,653.45
2016-12-01T01:20:27.433Z,656.56
2016-12-01T01:21:27.571Z,654.4
2016-12-01T01:22:27.500Z,655.27
2016-12-01T01:23:27.471Z,657.31
2016-12-01T01:24:27.474Z,655.44
2016-12-01T01:25:27.507Z,656.53
2016-12-01T01:26:27.517Z,659.25
2016-12-01T01:27:27.584Z,658.85
2016-12-01T01:28:27.614Z,657.36
2016-12-01T01:29:27.515Z,656.29
2016-12-01T01:30:27.488Z,655.59
2016-12-01T01:31:27.575Z,656.64
2016-12-01T01:32:27.500Z,656.97
2016-12-01T01:33:27.485Z,656
2016-12-01T01:34:27.442Z,657.67
2016-12-01T01:35:27.493Z,658.38
2016-12-01T01:36:27.472Z,661.42
2016-12-01T01:37:27.512Z,662.12
2016-12-01T01:38:27.538Z,660.14
2016-12-01T01:39:27.543Z,661.36
2016-12-01T01:40:27.480Z,660.97
2016-12-01T01:41:27.633Z,661.72
2016-12-01T01:42:27.537Z,659.41
2016-12-01T01:43:27.507Z,659.54
2016-12-01T01:44:27.495Z,661.35
2016-12-01T01:45:27.546Z,661.32
2016-12-01T01:46:27.494Z,662.09
2016-12-01T01:47:27.617Z,660.98
2016-12-01T01:48:27.533Z,661.84
2016-12-01T01:49:27.518Z,660.25
2016-12-01T01:50:27.467Z,658.75
2016-12-01T01:51:27.527Z,660.6
2016-12-01T01:52:27.530Z,662.43
2016-12-01T01:53:27.604Z,660.13
2016-12-01T01:54:27.466Z,659.79
2016-12-01T01:55:27.605Z,661.4
2016-12-01T01:56:27.516Z,662.81
2016-12-01T01:57:27.486Z,664.25
2016-12-01T01:58:27.533Z,662.84
2016-12-01T01:59:27.620Z,663.01
2016-12-01T02:00:27.535Z,663.73
2016-12-01T02:01:27.536Z,661.7
2016-12-01T02:02:27.498Z,663.71
2016-12-01T02:03:27.594Z,664.39
2016-12-01T02:04:27.591Z,663.51
2016-12-01T02:05:27.575Z,665.14
2016-12-01T02:06:27.536Z,666.29
2016-12-01T02:07:27.611Z,664.87
2016-12-01T02:08:27.530Z,662.85
2016-12-01T02:09:27.559Z,664.7
2016-12-01T02:10:27.482Z,664.88
2016-12-01T02:11:27.633Z,663.57
2016-12-01T02:12:28.743Z,662.83
2016-12-01T02:13:27.532Z,664.11
2016-12-01T02:14:27.500Z,666.32
2016-12-01T02:15:27.550Z,667
2016-12-01T02:16:27.487Z,666.07
2016-12-01T02:17:27.652Z,665.74
2016-12-01T02:18:27.541Z,667.58
2016-12-01T02:19:27.589Z,666.8
2016-12-01T02:20:27.632Z,667.34
2016-12-01T02:21:27.553Z,667.67
2016-12-01T02:22:27.538Z,666.93
2016-12-01T02:23:27.659Z,667.27
2016-12-01T02:24:27.524Z,667.16
2016-12-01T02:25:27.567Z,665.88
2016-12-01T02:26:27.476Z,668.03
2016-12-01T02:27:27.610Z,667.81
2016-12-01T02:28:27.589Z,668.35
2016-12-01T02:29:27.633Z,668.9
2016-12-01T02:30:27.567Z,668.17
2016-12-01T02:31:27.704Z,667.1
2016-12-01T02:32:27.619Z,666.36
2016-12-01T02:33:27.600Z,663.77
2016-12-01T02:34:27.520Z,665.76
2016-12-01T02:35:27.644Z,664.55
2016-12-01T02:36:27.552Z,664.69
2016-12-01T02:37:27.553Z,665.41
2016-12-01T02:38:27.520Z,666.83
2016-12-01T02:39:27.617Z,666.65
2016-12-01T02:40:27.582Z,663.88
2016-12-01T02:41:27.699Z,668.42
2016-12-01T02:42:27.533Z,667.52
2016-12-01T02:43:27.610Z,668.01
2016-12-01T02:44:27.492Z,666.87
2016-12-01T02:45:27.674Z,667.05
2016-12-01T02:46:27.487Z,667.16
2016-12-01T02:47:27.587Z,668.6
2016-12-01T02:48:27.536Z,668.81
2016-12-01T02:49:27.521Z,667.71
2016-12-01T02:50:27.591Z,666.78
2016-12-01T02:51:27.529Z,669.44
2016-12-01T02:52:27.568Z,671.06
2016-12-01T02:53:27.605Z,669.73
2016-12-01T02:54:27.557Z,670.46
2016-12-01T02:55:27.549Z,669.89
2016-12-01T02:56:27.566Z,667.93
2016-12-01T02:57:28.202Z,668.98
2016-12-01T02:58:27.572Z,670.92
2016-12-01T02:59:27.543Z,671.24
2016-12-01T03:00:27.604Z,670.37
2016-12-01T03:01:27.558Z,672.33
2016-12-01T03:02:27.581Z,671.29
2016-12-01T03:03:27.587Z,669.59
2016-12-01T03:04:27.611Z,670.85
2016-12-01T03:05:27.652Z,667.41
2016-12-01T03:06:27.599Z,667.95
2016-12-01T03:07:27.630Z,669.07
2016-12-01T03:08:27.552Z,670.16
2016-12-01T03:09:27.613Z,670.13
2016-12-01T03:10:27.665Z,671.44
2016-12-01T03:11:27.565Z,671.63
2016-12-01T03:12:27.592Z,670.37
2016-12-01T03:13:27.574Z,672.34
2016-12-01T03:14:27.630Z,671.95
2016-12-01T03:15:27.671Z,674.21
2016-12-01T03:16:27.608Z,668.4
2016-12-01T03:17:27.670Z,670.07
2016-12-01T03:18:27.590Z,670.36
2016-12-01T03:19:27.601Z,670.33
2016-12-01T03:20:27.653Z,669.63
2016-12-01T03:21:27.558Z,670.41
2016-12-01T03:22:27.663Z,671.04
2016-12-01T03:23:27.651Z,672.7
2016-12-01T03:24:27.536Z,672.42
2016-12-01T03:25:27.656Z,672.58
2016-12-01T03:26:27.611Z,671.88
2016-12-01T03:27:27.659Z,671.06
2016-12-01T03:28:27.590Z,672.48
2016-12-01T03:29:27.587Z,673.59
2016-12-01T03:30:27.581Z,672.18
2016-12-01T03:31:27.593Z,674.11
2016-12-01T03:32:27.551Z,671.6
2016-12-01T03:33:27.660Z,671.79
2016-12-01T03:34:27.611Z,672.72
2016-12-01T03:35:27.694Z,674.67
2016-12-01T03:36:27.645Z,675.61
2016-12-01T03:37:27.683Z,674.87
2016-12-01T03:38:27.650Z,674.54
2016-12-01T03:39:27.602Z,673.26
2016-12-01T03:40:27.633Z,673.69
2016-12-01T03:41:27.570Z,673.27
2016-12-01T03:42:27.593Z,675.01
2016-12-01T03:43:27.724Z,674.88
2016-12-01T03:44:27.667Z,673.76
2016-12-01T03:45:27.743Z,674.1
2016-12-01T03:46:27.644Z,676.82
2016-12-01T03:47:27.742Z,675.82
2016-12-01T03:48:27.601Z,676.44
2016-12-01T03:49:27.646Z,676.8
2016-12-01T03:50:27.613Z,675.38
2016-12-01T03:51:27.659Z,674.3
2016-12-01T03:52:27.600Z,672.2
2016-12-01T03:53:27.562Z,671.11
2016-12-01T03:54:27.617Z,673.5
2016-12-01T03:55:27.582Z,674.06
2016-12-01T03:56:27.682Z,674.58
2016-12-01T03:57:27.608Z,672.96
2016-12-01T03:58:27.568Z,672.6
2016-12-01T03:59:27.726Z,672.6
2016-12-01T04:00:27.668Z,673.17
2016-12-01T04:01:27.643Z,674.93
2016-12-01T04:02:27.590Z,673.83
2016-12-01T04:03:27.688Z,674.03
2016-12-01T04:04:27.612Z,673.44
2016-12-01T04:05:27.656Z,670.27
2016-12-01T04:06:27.763Z,671.24
2016-12-01T04:07:27.642Z,672.97
2016-12-01T04:08:27.589Z,672.64
2016-12-01T04:09:27.763Z,672.8
2016-12-01T04:10:27.654Z,672.87
2016-12-01T04:11:27.764Z,669.96
2016-12-01T04:12:27.715Z,670.54
2016-12-01T04:13:27.707Z,670.67
2016-12-01T04:14:27.624Z,673.57
2016-12-01T04:15:27.819Z,671.21
2016-12-01T04:16:27.657Z,672.3
2016-12-01T04:17:27.711Z,671.6
2016-12-01T04:18:27.644Z,671.28
2016-12-01T04:19:27.711Z,671.4
2016-12-01T04:20:27.632Z,673.51
2016-12-01T04:21:27.777Z,672.98
2016-12-01T04:22:27.741Z,673.28
2016-12-01T04:23:27.661Z,672.24
2016-12-01T04:24:27.644Z,670.42
2016-12-01T04:25:27.767Z,671.79
2016-12-01T04:26:27.621Z,670.64
2016-12-01T04:27:27.710Z,672.68
2016-12-01T04:28:27.670Z,671.39
2016-12-01T04:29:27.606Z,672.54
2016-12-01T04:30:27.710Z,672.48
2016-12-01T04:31:27.719Z,673.97
2016-12-01T04:32:27.675Z,673.27
2016-12-01T04:33:27.738Z,672.95
2016-12-01T04:34:27.664Z,675.25
2016-12-01T04:35:27.685Z,675.6
2016-12-01T04:36:27.654Z,672.52
2016-12-01T04:37:27.738Z,670.63
2016-12-01T04:38:27.708Z,672.09
2016-12-01T04:39:27.750Z,671.31
2016-12-01T04:40:27.699Z,672.94
2016-12-01T04:41:27.767Z,672.36
2016-12-01T04:42:27.675Z,673.43
2016-12-01T04:43:27.747Z,671.36
2016-12-01T04:44:27.637Z,671.04
2016-12-01T04:45:27.696Z,670.22
2016-12-01T04:46:27.745Z,669.98
2016-12-01T04:47:27.774Z,671.96
2016-12-01T04:48:27.687Z,670.32
2016-12-01T04:49:27.833Z,669.81
2016-12-01T04:50:27.708Z,668.21
2016-12-01T04:51:27.734Z,667.36
2016-12-01T04:52:27.713Z,667.01
2016-12-01T04:53:27.667Z,667.8
2016-12-01T04:54:27.679Z,669.59
2016-12-01T04:55:27.677Z,670.66
2016-12-01T04:56:27.667Z,669.59
2016-12-01T04:57:27.713Z,670.87
2016-12-01T04:58:27.707Z,669.57
2016-12-01T04:59:27.732Z,669.72
2016-12-01T05:00:27.665Z,669.35
2016-12-01T05:01:27.733Z,670.26
2016-12-01T05:02:27.681Z,670.5
2016-12-01T05:03:27.646Z,669.39
2016-12-01T05:04:27.671Z,668.79
2016-12-01T05:05:27.700Z,668.06
2016-12-01T05:06:27.727Z,667.16
2016-12-01T05:07:27.778Z,667.3
2016-12-01T05:08:27.735Z,669.22
2016-12-01T05:09:27.745Z,670.47
2016-12-01T05:10:27.737Z,669.18
2016-12-01T05:11:27.926Z,669.4
2016-12-01T05:12:27.767Z,668.44
2016-12-01T05:13:27.708Z,669.23
2016-12-01T05:14:27.693Z,666.72
2016-12-01T05:15:27.838Z,665.4
2016-12-01T05:16:27.722Z,667.58
2016-12-01T05:17:27.746Z,665.96
2016-12-01T05:18:27.707Z,667.27
2016-12-01T05:19:27.736Z,668.48
2016-12-01T05:20:27.828Z,669.1
2016-12-01T05:21:27.759Z,669.51
2016-12-01T05:22:27.857Z,668.22
2016-12-01T05:23:27.823Z,669.21
2016-12-01T05:24:27.793Z,670.7
2016-12-01T05:25:27.869Z,671.22
2016-12-01T05:26:28.975Z,670.5
2016-12-01T05:27:27.816Z,673.67
2016-12-01T05:28:27.707Z,670.92
2016-12-01T05:29:27.730Z,670.37
2016-12-01T05:30:27.738Z,670.74
2016-12-01T05:31:27.825Z,671.75
2016-12-01T05:32:27.738Z,673.52
2016-12-01T05:33:27.976Z,673.63
2016-12-01T05:34:27.763Z,676.53
2016-12-01T05:35:27.724Z,676.16
2016-12-01T05:36:27.681Z,676.19
2016-12-01T05:37:27.806Z,676.43
2016-12-01T05:38:27.727Z,676.49
2016-12-01T05:39:27.809Z,677.33
2016-12-01T05:40:27.819Z,676.68
2016-12-01T05:41:27.814Z,677.19
2016-12-01T05:42:27.665Z,679.66
2016-12-01T05:43:27.806Z,679.08
2016-12-01T05:44:27.751Z,678.54
2016-12-01T05:45:27.757Z,680.3
2016-12-01T05:46:27.762Z,679.98
2016-12-01T05:47:27.777Z,677.34
2016-12-01T05:48:27.738Z,676.6
2016-12-01T05:49:27.846Z,679.26
2016-12-01T05:50:27.783Z,676.75
2016-12-01T05:51:27.965Z,676.74
2016-12-01T05:52:27.823Z,675.85
2016-12-01T05:53:27.837Z,674.37
2016-12-01T05:54:27.826Z,676.37
2016-12-01T05:55:27.844Z,674.95
2016-12-01T05:56:27.816Z,675.87
2016-12-01T05:57:27.817Z,675.91
2016-12-01T05:58:27.840Z,676.33
2016-12-01T05:59:27.943Z,675.03
2016-12-01T06:00:27.759Z,672.86
2016-12-01T06:01:27.807Z,675.9
2016-12-01T06:02:27.763Z,675.71
2016-12-01T06:03:27.793Z,676.4
2016-12-01T06:04:27.739Z,677.24
2016-12-01T06:05:27.834Z,677.2
2016-12-01T06:06:27.767Z,674.82
2016-12-01T06:07:27.775Z,675.26
2016-12-01T06:08:27.774Z,674.41
2016-12-01T06:09:27.873Z,673.98
2016-12-01T06:10:27.809Z,674.01
2016-12-01T06:11:27.794Z,675.99
2016-12-01T06:12:27.864Z,678.35
2016-12-01T06:13:27.799Z,676.71
2016-12-01T06:14:27.724Z,679.04
2016-12-01T06:15:27.865Z,679.98
2016-12-01T06:16:27.909Z,681.23
2016-12-01T06:17:27.822Z,679.81
2016-12-01T06:18:27.829Z,679.52
2016-12-01T06:19:27.838Z,679.7
2016-12-01T06:20:27.796Z,681.66
2016-12-01T06:21:27.774Z,681.32
2016-12-01T06:22:27.763Z,681.21
2016-12-01T06:23:27.923Z,680.12
2016-12-01T06:24:27.781Z,682.12
2016-12-01T06:25:27.924Z,682.43
2016-12-01T06:26:27.795Z,683.82
2016-12-01T06:27:27.948Z,684.19
2016-12-01T06:28:27.746Z,681.85
2016-12-01T06:29:27.893Z,682.6
2016-12-01T06:30:27.774Z,682.82
2016-12-01T06:31:27.898Z,684.31
2016-12-01T06:32:27.803Z,686.05
2016-12-01T06:33:27.874Z,688.41
2016-12-01T06:34:27.747Z,690.09
2016-12-01T06:35:27.921Z,690.63
2016-12-01T06:36:27.830Z,692.88
2016-12-01T06:37:28.233Z,693.4
2016-12-01T06:38:27.983Z,693.79
2016-12-01T06:39:28.277Z,692.78
2016-12-01T06:40:27.763Z,690.95
2016-12-01T06:41:27.893Z,689.18
2016-12-01T06:42:27.802Z,686.91
2016-12-01T06:43:27.917Z,687.07
2016-12-01T06:44:27.859Z,689.66
2016-12-01T06:45:27.891Z,690.88
2016-12-01T06:46:27.772Z,689.21
2016-12-01T06:47:27.862Z,688.69
2016-12-01T06:48:27.779Z,685.8
2016-12-01T06:49:27.931Z,685.8
2016-12-01T06:50:27.762Z,682.83
2016-12-01T06:51:27.825Z,682.99
2016-12-01T06:52:27.842Z,680.9
2016-12-01T06:53:27.953Z,683.02
2016-12-01T06:54:27.846Z,681.43
2016-12-01T06:55:27.863Z,681.33
2016-12-01T06:56:27.871Z,680.96
2016-12-01T06:57:27.844Z,679.9
2016-12-01T06:58:27.774Z,682.75
2016-12-01T06:59:27.891Z,680.27
2016-12-01T07:00:27.838Z,679.01
2016-12-01T07:01:27.853Z,679.72
2016-12-01T07:02:27.818Z,681.2
2016-12-01T07:03:27.939Z,681.03
2016-12-01T07:04:27.802Z,683.68
2016-12-01T07:05:27.830Z,681.73
2016-12-01T07:06:27.792Z,681.4
2016-12-01T07:07:27.912Z,683.54
2016-12-01T07:08:27.816Z,683.18
2016-12-01T07:09:27.921Z,681.25
2016-12-01T07:10:27.844Z,681.76
2016-12-01T07:11:27.880Z,682.95
2016-12-01T07:12:27.829Z,683.43
2016-12-01T07:13:27.888Z,684.31
2016-12-01T07:14:27.815Z,684.54
2016-12-01T07:15:27.799Z,684.11
2016-12-01T07:16:27.812Z,684.31
2016-12-01T07:17:27.926Z,681.04
2016-12-01T07:18:27.864Z,682.3
2016-12-01T07:19:27.990Z,681.07
2016-12-01T07:20:27.802Z,682.59
2016-12-01T07:21:27.974Z,683.64
2016-12-01T07:22:27.860Z,683.63
2016-12-01T07:23:29.138Z,682.94
2016-12-01T07:24:27.800Z,683.13
2016-12-01T07:25:27.918Z,682.48
2016-12-01T07:26:27.802Z,682.69
2016-12-01T07:27:27.851Z,685.17
2016-12-01T07:28:27.898Z,688.48
2016-12-01T07:29:27.912Z,688.24
2016-12-01T07:30:27.841Z,685.27
2016-12-01T07:31:27.800Z,685.3
2016-12-01T07:32:27.897Z,683.52
2016-12-01T07:33:28.152Z,682.97
2016-12-01T07:34:27.997Z,684.53
2016-12-01T07:35:27.933Z,684.56
2016-12-01T07:36:28.094Z,685.93
2016-12-01T07:37:27.853Z,683.34
2016-12-01T07:38:28.046Z,684.04
2016-12-01T07:39:28.063Z,684.36
2016-12-01T07:40:27.947Z,687.67
2016-12-01T07:41:28.021Z,686.78
2016-12-01T07:42:27.857Z,685.54
2016-12-01T07:43:27.881Z,687.1
2016-12-01T07:44:27.832Z,684.95
2016-12-01T07:45:28.008Z,685.3
2016-12-01T07:46:27.852Z,686.51
2016-12-01T07:48:46.631Z,687.17
2016-12-01T07:49:46.622Z,686.28
2016-12-01T07:50:46.643Z,687.5
2016-12-01T07:51:46.620Z,688.11
2016-12-01T07:52:46.543Z,692.54
2016-12-01T07:53:46.622Z,692.12
2016-12-01T07:54:46.645Z,690.05
2016-12-01T07:55:46.659Z,691.23
2016-12-01T07:56:46.586Z,690.1
2016-12-01T07:57:46.642Z,691.78
2016-12-01T07:58:46.635Z,692.19
2016-12-01T07:59:46.608Z,692.83
2016-12-01T08:00:46.638Z,693.56
2016-12-01T08:01:46.669Z,693.02
2016-12-01T08:02:46.612Z,697.34
2016-12-01T08:03:46.629Z,697.77
2016-12-01T08:04:46.668Z,699.73
2016-12-01T08:05:46.684Z,701.01
2016-12-01T08:06:46.682Z,696.39
2016-12-01T08:07:46.625Z,696.87
2016-12-01T08:08:46.695Z,696.62
2016-12-01T08:09:46.681Z,695.76
2016-12-01T08:10:46.673Z,698.44
2016-12-01T08:11:46.670Z,698.8
2016-12-01T08:12:46.686Z,698.27
2016-12-01T08:13:46.772Z,700.49
2016-12-01T08:14:46.727Z,698.39
2016-12-01T08:15:46.811Z,697.74
2016-12-01T08:16:46.636Z,702.3
2016-12-01T08:17:46.755Z,705.19
2016-12-01T08:18:46.673Z,703.04
2016-12-01T08:19:46.642Z,704.5
2016-12-01T08:20:46.644Z,702.9
2016-12-01T08:21:46.734Z,700.74
2016-12-01T08:22:46.630Z,702.67
2016-12-01T08:23:46.669Z,699.43
2016-12-01T08:24:46.654Z,700.08
2016-12-01T08:25:46.660Z,702.2
2016-12-01T08:26:46.646Z,702.67
2016-12-01T08:27:46.640Z,704.41
2016-12-01T08:28:46.762Z,705.61
2016-12-01T08:29:46.650Z,705.57
2016-12-01T08:30:46.645Z,702.79
2016-12-01T08:31:46.699Z,702.17
2016-12-01T08:32:46.646Z,703.51
2016-12-01T08:33:46.663Z,703.04
2016-12-01T08:34:46.675Z,704.53
2016-12-01T08:35:46.641Z,704.53
2016-12-01T08:36:46.678Z,704.69
2016-12-01T08:37:46.658Z,705.56
2016-12-01T08:38:46.703Z,705.53
2016-12-01T08:39:46.669Z,704.3
2016-12-01T08:40:46.646Z,704.07
2016-12-01T08:41:46.637Z,705.88
2016-12-01T08:42:46.671Z,704.99
2016-12-01T08:43:46.653Z,707.42
2016-12-01T08:44:46.626Z,711.21
2016-12-01T08:45:46.669Z,707.07
2016-12-01T08:46:46.664Z,707.41
2016-12-01T08:47:46.695Z,711.6
2016-12-01T08:48:46.681Z,710.47
2016-12-01T08:49:46.649Z,713.69
2016-12-01T08:50:46.704Z,717.94
2016-12-01T08:51:46.658Z,718.93
2016-12-01T08:52:46.659Z,718.78
2016-12-01T08:53:46.678Z,719.72
2016-12-01T08:54:46.726Z,718.41
2016-12-01T08:55:46.721Z,722.48
2016-12-01T08:56:46.633Z,725.82
2016-12-01T08:57:46.691Z,726.14
2016-12-01T08:58:46.687Z,727.3
2016-12-01T08:59:46.687Z,727.08
2016-12-01T09:00:46.772Z,726.43
2016-12-01T09:01:46.641Z,729.79
2016-12-01T09:02:46.735Z,730.97
2016-12-01T09:03:46.664Z,731.81
2016-12-01T09:04:46.687Z,737.21
2016-12-01T09:05:46.732Z,736.34
2016-12-01T09:06:46.774Z,737.83
2016-12-01T09:07:46.639Z,739.45
2016-12-01T09:08:46.656Z,739.47
2016-12-01T09:09:46.643Z,739.88
2016-12-01T09:10:46.710Z,741.53
2016-12-01T09:11:46.683Z,743.86
2016-12-01T09:12:46.715Z,748.26
2016-12-01T09:13:46.705Z,745.93
2016-12-01T09:14:46.708Z,748.44
2016-12-01T09:15:46.709Z,752.23
2016-12-01T09:16:46.715Z,754.99
2016-12-01T09:17:46.758Z,753.49
2016-12-01T09:18:46.641Z,759.26
2016-12-01T09:19:46.690Z,758.49
2016-12-01T09:20:46.731Z,757.78
2016-12-01T09:21:46.694Z,761.95
2016-12-01T09:22:46.736Z,763.31
2016-12-01T09:23:46.707Z,765.98
2016-12-01T09:24:46.683Z,772.07
2016-12-01T09:25:46.753Z,772.95
2016-12-01T09:26:46.697Z,774.51
2016-12-01T09:27:46.717Z,779.15
2016-12-01T09:28:46.682Z,776.05
2016-12-01T09:29:46.711Z,777.11
2016-12-01T09:30:46.732Z,780.28
2016-12-01T09:31:46.781Z,783.95
2016-12-01T09:32:46.689Z,784.56
2016-12-01T09:33:46.697Z,788.71
2016-12-01T09:34:46.649Z,789.41
2016-12-01T09:35:46.728Z,786.88
2016-12-01T09:36:46.696Z,793.33
2016-12-01T09:37:46.731Z,797.18
2016-12-01T09:38:46.732Z,796.32
2016-12-01T09:39:46.736Z,802.52
2016-12-01T09:40:46.739Z,804.16
2016-12-01T09:41:46.749Z,801.96
2016-12-01T09:42:46.790Z,806.92
2016-12-01T09:43:47.392Z,809.6
2016-12-01T09:44:46.698Z,808.43
2016-12-01T09:45:46.786Z,814.07
2016-12-01T09:46:46.712Z,815.87
2016-12-01T09:47:46.690Z,815.24
2016-12-01T09:48:46.708Z,810.36
2016-12-01T09:49:46.681Z,811.3
2016-12-01T09:50:46.689Z,814.37
2016-12-01T09:51:46.773Z,815.72
2016-12-01T09:52:46.844Z,821.84
2016-12-01T09:53:46.730Z,819.78
2016-12-01T09:54:46.807Z,810.44
2016-12-01T09:55:46.847Z,818.88
2016-12-01T09:56:46.647Z,826.58
2016-12-01T09:57:46.745Z,835.54
2016-12-01T09:58:46.706Z,837.26
2016-12-01T09:59:46.750Z,838.56
2016-12-01T10:00:46.776Z,836.14
2016-12-01T10:01:46.771Z,828.65
2016-12-01T10:02:46.747Z,836.27
2016-12-01T10:03:46.732Z,833.09
2016-12-01T10:04:46.815Z,830.17
2016-12-01T10:05:46.782Z,834.56
2016-12-01T10:06:46.756Z,828.19
2016-12-01T10:07:46.773Z,830.05
2016-12-01T10:08:46.744Z,828.44
2016-12-01T10:09:46.772Z,835.93
2016-12-01T10:10:46.752Z,839.28
2016-12-01T10:11:46.727Z,836.46
2016-12-01T10:12:46.702Z,837.96
2016-12-01T10:13:46.733Z,840.58
2016-12-01T10:14:46.777Z,838.02
2016-12-01T10:15:46.777Z,838.99
2016-12-01T10:16:46.776Z,838.9
2016-12-01T10:17:46.729Z,843.88
2016-12-01T10:18:46.821Z,844.36
2016-12-01T10:19:46.719Z,846.99
2016-12-01T10:20:46.850Z,845.08
2016-12-01T10:21:46.770Z,847.7
2016-12-01T10:22:46.757Z,848.84
2016-12-01T10:23:46.807Z,848.85
2016-12-01T10:24:46.819Z,844.89
2016-12-01T10:25:46.799Z,841.18
2016-12-01T10:26:46.815Z,847.77
2016-12-01T10:27:46.810Z,849.22
2016-12-01T10:28:46.795Z,851.86
2016-12-01T10:29:46.737Z,852.52
2016-12-01T10:30:46.794Z,851.08
2016-12-01T10:31:46.682Z,851.86
2016-12-01T10:32:46.779Z,847.78
2016-12-01T10:33:46.797Z,847.62
2016-12-01T10:34:46.795Z,844.98
2016-12-01T10:35:46.857Z,841.77
2016-12-01T10:36:46.752Z,852.28
2016-12-01T10:37:46.750Z,852.02
2016-12-01T10:38:46.754Z,844.73
2016-12-01T10:39:46.795Z,845.73
2016-12-01T10:40:46.796Z,853.24
2016-12-01T10:41:46.756Z,853.06
2016-12-01T10:42:46.724Z,845.77
2016-12-01T10:43:46.828Z,852.22
2016-12-01T10:44:46.771Z,846.92
2016-12-01T10:45:46.843Z,848.72
2016-12-01T10:46:46.836Z,849.49
2016-12-01T10:47:46.779Z,837.19
2016-12-01T10:48:46.846Z,833.2
2016-12-01T10:49:46.821Z,830.19
2016-12-01T10:50:46.837Z,828.97
2016-12-01T10:51:46.816Z,826.1
2016-12-01T10:52:46.787Z,827.16
2016-12-01T10:53:46.790Z,830.52
2016-12-01T10:54:46.814Z,828.48
2016-12-01T10:55:46.855Z,832
2016-12-01T10:56:46.760Z,827.37
2016-12-01T10:57:46.855Z,826.39
2016-12-01T10:58:46.776Z,826.38
2016-12-01T10:59:46.777Z,825.4
2016-12-01T11:00:46.849Z,821.64
2016-12-01T11:01:46.846Z,818.39
2016-12-01T11:02:46.819Z,821.09
2016-12-01T11:03:46.814Z,824.62
2016-12-01T11:04:46.789Z,822.56
2016-12-01T11:05:46.823Z,819.59
2016-12-01T11:06:46.836Z,820.42
2016-12-01T11:07:46.816Z,819.61
2016-12-01T11:08:46.816Z,822.57
2016-12-01T11:09:46.783Z,823.13
2016-12-01T11:10:46.952Z,819.84
2016-12-01T11:11:46.830Z,819.97
2016-12-01T11:12:46.843Z,822.12
2016-12-01T11:13:46.837Z,826.44
2016-12-01T11:14:46.835Z,820.72
2016-12-01T11:15:46.860Z,825.21
2016-12-01T11:16:46.810Z,826.23
2016-12-01T11:17:46.896Z,825.61
2016-12-01T11:18:46.847Z,827.43
2016-12-01T11:19:46.819Z,824.78
2016-12-01T11:20:46.861Z,827.34
2016-12-01T11:21:46.866Z,829.62
2016-12-01T11:22:46.866Z,828.69
2016-12-01T11:23:46.866Z,827.65
2016-12-01T11:24:46.919Z,829.28
2016-12-01T11:25:46.835Z,827.65
2016-12-01T11:26:46.812Z,832.32
2016-12-01T11:27:46.869Z,833.56
2016-12-01T11:28:46.879Z,836.25
2016-12-01T11:29:46.871Z,834.93
2016-12-01T11:30:46.899Z,836.12
2016-12-01T11:31:46.868Z,832.7
2016-12-01T11:32:46.972Z,835.2
2016-12-01T11:33:46.843Z,835.95
2016-12-01T11:34:46.854Z,835.3
2016-12-01T11:35:46.879Z,834.94
2016-12-01T11:36:46.860Z,829.9
2016-12-01T11:37:46.886Z,825.55
2016-12-01T11:38:46.951Z,829.95
2016-12-01T11:39:46.877Z,827.95
2016-12-01T11:40:46.869Z,821.64
2016-12-01T11:41:46.841Z,821.64
2016-12-01T11:42:46.840Z,819.5
2016-12-01T11:43:46.879Z,819.79
2016-12-01T11:44:46.836Z,817.55
2016-12-01T11:45:46.889Z,815.83
2016-12-01T11:46:46.851Z,817.67
2016-12-01T11:47:46.871Z,816.77
2016-12-01T11:48:46.863Z,817.53
2016-12-01T11:49:46.896Z,815.23
2016-12-01T11:50:46.855Z,817.81
2016-12-01T11:51:46.880Z,818.84
2016-12-01T11:52:46.819Z,818.35
2016-12-01T11:53:46.840Z,815.34
2016-12-01T11:54:46.850Z,816.21
2016-12-01T11:55:46.839Z,818.16
2016-12-01T11:56:46.892Z,816.92
2016-12-01T11:57:46.922Z,820.37
2016-12-01T11:58:46.893Z,820.04
2016-12-01T11:59:46.822Z,821.11
2016-12-01T12:00:46.881Z,819.39
2016-12-01T12:01:46.879Z,820.13
2016-12-01T12:02:46.834Z,818.22
2016-12-01T12:03:46.908Z,818.43
2016-12-01T12:04:46.856Z,817.62
2016-12-01T12:05:46.889Z,817.17
2016-12-01T12:06:46.834Z,814.47
2016-12-01T12:07:46.892Z,812.37
2016-12-01T12:08:46.885Z,816.49
2016-12-01T12:09:46.860Z,819.54
2016-12-01T12:10:46.891Z,819.18
2016-12-01T12:11:46.953Z,815.84
2016-12-01T12:12:46.902Z,812.36
2016-12-01T12:13:46.979Z,814.53
2016-12-01T12:14:46.936Z,817.43
2016-12-01T12:15:46.935Z,815.21
2016-12-01T12:16:46.885Z,817.58
2016-12-01T12:17:46.887Z,811.28
2016-12-01T12:18:46.871Z,815.11
2016-12-01T12:19:46.883Z,814.52
2016-12-01T12:20:46.881Z,811.55
2016-12-01T12:21:47.152Z,815.25
2016-12-01T12:22:46.880Z,813.79
2016-12-01T12:23:46.917Z,816.7
2016-12-01T12:24:46.970Z,816.18
2016-12-01T12:25:46.923Z,819.71
2016-12-01T12:26:46.903Z,815.58
2016-12-01T12:27:46.944Z,818.43
2016-12-01T12:28:46.956Z,816.02
2016-12-01T12:29:46.931Z,817.1
2016-12-01T12:30:46.951Z,820.15
2016-12-01T12:31:46.946Z,822.51
2016-12-01T12:32:46.923Z,823.02